Terminal Aerodrome Forecast
Issued by NWS

Home | Current Version | Previous Version | Text Only | Print | Product List | Glossary Off
Versions: 1 2 3 4 5 6 7 8 9 10 11 12 13 14 15 16 17 18 19 20 21

292
FTUS43 KMPX 141141
TAFAXN
TAF
KAXN 141141Z 1412/1512 31006KT P6SM OVC008
     FM141500 31007KT P6SM -SN OVC010
     FM141900 32013G21KT P6SM OVC015=

USA.gov is the U.S. government's official web portal to all federal, state and local government web resources and services.